createdAt,value
2022-12-12T00:00:39.596Z,77.32
2022-12-12T00:03:06.184Z,77.85
2022-12-12T00:05:32.788Z,78.14
2022-12-12T00:07:59.910Z,77.88
2022-12-12T00:10:26.484Z,78.30
2022-12-12T00:12:53.011Z,77.82
2022-12-12T00:15:19.555Z,78.53
2022-12-12T00:17:46.071Z,78.19
2022-12-12T00:20:12.593Z,78.23
2022-12-12T00:22:39.130Z,77.94
2022-12-12T00:25:06.149Z,78.21
2022-12-12T00:27:33.488Z,78.25
2022-12-12T00:30:00.199Z,78.13
2022-12-12T00:32:26.806Z,78.11
2022-12-12T00:34:53.294Z,78.46
2022-12-12T00:37:19.933Z,78.19
2022-12-12T00:39:46.462Z,78.88
2022-12-12T00:42:13.102Z,79.26
2022-12-12T00:44:39.771Z,78.76
2022-12-12T00:47:06.583Z,78.88
2022-12-12T00:49:33.341Z,78.55
2022-12-12T00:51:59.835Z,79.20
2022-12-12T00:54:26.365Z,78.89
2022-12-12T00:56:52.908Z,78.57
2022-12-12T00:59:19.812Z,78.42
2022-12-12T01:01:46.991Z,78.30
2022-12-12T01:04:13.541Z,78.60
2022-12-12T01:06:40.167Z,78.36
2022-12-12T01:09:06.674Z,78.61
2022-12-12T01:11:33.241Z,78.26
2022-12-12T01:13:59.800Z,78.24
2022-12-12T01:16:26.381Z,78.82
2022-12-12T01:18:53.354Z,78.74
2022-12-12T01:21:20.618Z,79.19
2022-12-12T01:23:47.518Z,79.14
2022-12-12T01:26:19.929Z,79.21
2022-12-12T01:28:46.870Z,79.33
2022-12-12T01:31:14.070Z,79.94
2022-12-12T01:33:45.745Z,79.65
2022-12-12T01:36:16.412Z,79.66
2022-12-12T01:38:47.246Z,78.93
2022-12-12T01:41:14.323Z,79.58
2022-12-12T01:43:40.917Z,78.99
2022-12-12T01:46:31.017Z,79.19
2022-12-12T01:49:12.998Z,79.42
2022-12-12T01:51:40.272Z,79.84
2022-12-12T01:54:10.644Z,79.84
2022-12-12T01:56:38.727Z,79.76
2022-12-12T01:59:07.837Z,79.32
2022-12-12T02:01:34.736Z,79.52
2022-12-12T02:04:01.930Z,78.99
2022-12-12T02:06:29.905Z,79.06
2022-12-12T02:08:59.648Z,78.94
2022-12-12T02:11:28.346Z,79.43
2022-12-12T02:13:54.915Z,79.95
2022-12-12T02:16:40.168Z,79.47
2022-12-12T02:19:34.850Z,79.40
2022-12-12T02:22:10.095Z,79.41
2022-12-12T02:25:10.235Z,79.84
2022-12-12T02:28:14.180Z,80.07
2022-12-12T02:30:56.207Z,79.57
2022-12-12T02:33:37.772Z,80.07
2022-12-12T02:36:07.221Z,80.21
2022-12-12T02:38:43.624Z,80.18
2022-12-12T02:41:38.494Z,80.18
2022-12-12T02:44:18.275Z,79.95
2022-12-12T02:47:09.198Z,80.43
2022-12-12T02:50:01.076Z,79.72
2022-12-12T02:52:27.711Z,80.02
2022-12-12T02:54:54.199Z,79.91
2022-12-12T02:57:23.238Z,79.90
2022-12-12T02:59:58.611Z,79.75
2022-12-12T03:03:14.110Z,80.12
2022-12-12T03:06:11.589Z,80.57
2022-12-12T03:08:45.400Z,80.05
2022-12-12T03:11:15.362Z,80.27
2022-12-12T03:14:12.334Z,79.50
2022-12-12T03:16:49.189Z,79.65
2022-12-12T03:19:25.845Z,80.57
2022-12-12T03:21:57.555Z,80.21
2022-12-12T03:24:30.207Z,80.98
2022-12-12T03:27:10.993Z,80.49
2022-12-12T03:29:46.311Z,80.80
2022-12-12T03:32:21.756Z,80.58
2022-12-12T03:35:02.762Z,80.46
2022-12-12T03:37:34.224Z,80.25
2022-12-12T03:40:09.143Z,81.15
2022-12-12T03:42:40.487Z,80.98
2022-12-12T03:45:12.610Z,80.15
2022-12-12T03:47:46.843Z,80.15
2022-12-12T03:50:35.495Z,80.12
2022-12-12T03:53:24.050Z,80.36
2022-12-12T03:55:57.064Z,80.74
2022-12-12T03:58:27.880Z,80.70
2022-12-12T04:00:56.985Z,80.94
2022-12-12T04:03:33.148Z,80.88
2022-12-12T04:06:28.528Z,80.39
2022-12-12T04:09:17.697Z,80.87
2022-12-12T04:12:15.733Z,80.78
2022-12-12T04:15:00.461Z,81.18
2022-12-12T04:17:36.547Z,81.16
2022-12-12T04:20:28.729Z,81.22
2022-12-12T04:23:15.861Z,81.14
2022-12-12T04:26:26.137Z,80.96
2022-12-12T04:29:07.028Z,80.91
2022-12-12T04:31:37.530Z,80.73
2022-12-12T04:34:08.151Z,81.17
2022-12-12T04:36:35.420Z,80.65
2022-12-12T04:39:02.813Z,81.01
2022-12-12T04:41:32.061Z,80.84
2022-12-12T04:43:59.697Z,80.74
2022-12-12T04:46:28.418Z,80.66
2022-12-12T04:48:58.798Z,81.16
2022-12-12T04:51:47.537Z,80.89
2022-12-12T04:54:55.327Z,80.37
2022-12-12T04:57:27.267Z,80.68
2022-12-12T04:59:53.866Z,80.69
2022-12-12T05:02:27.033Z,81.17
2022-12-12T05:04:58.229Z,80.91
2022-12-12T05:07:32.837Z,80.97
2022-12-12T05:10:01.932Z,80.89
2022-12-12T05:12:28.653Z,81.51
2022-12-12T05:14:55.247Z,80.77
2022-12-12T05:17:27.055Z,80.92
2022-12-12T05:19:53.573Z,81.26
2022-12-12T05:22:20.211Z,80.79
2022-12-12T05:24:46.772Z,81.25
2022-12-12T05:27:13.309Z,80.48
2022-12-12T05:29:39.902Z,80.72
2022-12-12T05:32:06.534Z,81.32
2022-12-12T05:34:33.073Z,80.93
2022-12-12T05:37:00.816Z,80.94
2022-12-12T05:39:28.488Z,80.75
2022-12-12T05:41:55.103Z,80.90
2022-12-12T05:44:21.756Z,80.77
2022-12-12T05:46:48.281Z,80.69
2022-12-12T05:49:14.905Z,81.23
2022-12-12T05:51:41.821Z,80.66
2022-12-12T05:54:08.597Z,80.89
2022-12-12T05:56:35.099Z,80.38
2022-12-12T05:59:01.710Z,80.57
2022-12-12T06:01:28.298Z,80.25
2022-12-12T06:03:54.875Z,79.96
2022-12-12T06:06:21.507Z,79.91
2022-12-12T06:08:47.997Z,80.25
2022-12-12T06:11:14.543Z,80.09
2022-12-12T06:13:41.092Z,80.11
2022-12-12T06:16:09.274Z,79.83
2022-12-12T06:18:36.263Z,79.98
2022-12-12T06:21:08.065Z,79.99
2022-12-12T06:23:39.182Z,79.95
2022-12-12T06:26:06.925Z,79.92
2022-12-12T06:28:33.506Z,79.53
2022-12-12T06:31:00.055Z,80.13
2022-12-12T06:33:27.629Z,80.10
2022-12-12T06:36:02.456Z,80.25
2022-12-12T06:38:29.962Z,80.08
2022-12-12T06:40:56.644Z,79.91
2022-12-12T06:43:23.853Z,79.97
2022-12-12T06:45:50.454Z,79.95
2022-12-12T06:48:17.017Z,79.76
2022-12-12T06:50:44.820Z,79.88
2022-12-12T06:53:12.789Z,80.55
2022-12-12T06:55:43.067Z,79.96
2022-12-12T06:58:09.908Z,79.94
2022-12-12T07:00:36.701Z,80.01
2022-12-12T07:03:03.403Z,79.83
2022-12-12T07:05:29.985Z,79.90
2022-12-12T07:07:56.681Z,79.93
2022-12-12T07:10:23.322Z,80.11
2022-12-12T07:12:54.628Z,80.25
2022-12-12T07:15:23.828Z,80.11
2022-12-12T07:17:53.813Z,80.21
2022-12-12T07:20:20.830Z,80.06
2022-12-12T07:22:47.337Z,79.90
2022-12-12T07:25:14.315Z,80.26
2022-12-12T07:27:41.255Z,80.57
2022-12-12T07:30:08.575Z,79.98
2022-12-12T07:32:35.075Z,80.04
2022-12-12T07:35:01.605Z,80.00
2022-12-12T07:37:28.160Z,79.71
2022-12-12T07:39:54.764Z,79.81
2022-12-12T07:42:21.342Z,79.70
2022-12-12T07:44:48.783Z,80.42
2022-12-12T07:47:15.762Z,79.82
2022-12-12T07:49:42.309Z,79.91
2022-12-12T07:52:08.881Z,79.63
2022-12-12T07:54:35.414Z,79.64
2022-12-12T07:57:01.997Z,79.82
2022-12-12T07:59:28.568Z,79.79
2022-12-12T08:01:55.225Z,79.86
2022-12-12T08:04:21.911Z,79.15
2022-12-12T08:06:49.993Z,79.12
2022-12-12T08:09:18.151Z,79.24
2022-12-12T08:11:46.414Z,79.61
2022-12-12T08:14:13.545Z,79.69
2022-12-12T08:16:40.181Z,79.49
2022-12-12T08:19:06.913Z,79.46
2022-12-12T08:21:33.762Z,79.25
2022-12-12T08:24:02.144Z,79.50
2022-12-12T08:26:29.540Z,78.66
2022-12-12T08:28:57.138Z,79.06
2022-12-12T08:31:24.181Z,79.12
2022-12-12T08:33:51.180Z,79.41
2022-12-12T08:36:36.844Z,78.87
2022-12-12T08:39:16.046Z,79.04
2022-12-12T08:41:44.442Z,78.57
2022-12-12T08:44:11.688Z,78.56
2022-12-12T08:46:39.090Z,78.73
2022-12-12T08:49:05.701Z,78.32
2022-12-12T08:51:32.312Z,78.62
2022-12-12T08:53:58.854Z,78.43
2022-12-12T08:56:25.535Z,78.76
2022-12-12T08:58:52.253Z,78.55
2022-12-12T09:01:24.694Z,77.81
2022-12-12T09:03:52.513Z,78.19
2022-12-12T09:06:19.198Z,78.43
2022-12-12T09:08:46.063Z,77.94
2022-12-12T09:11:13.144Z,77.51
2022-12-12T09:13:40.133Z,77.54
2022-12-12T09:16:09.191Z,77.58
2022-12-12T09:18:36.510Z,77.72
2022-12-12T09:21:03.417Z,77.49
2022-12-12T09:23:30.085Z,77.28
2022-12-12T09:25:56.763Z,77.60
2022-12-12T09:28:24.829Z,77.00
2022-12-12T09:30:51.543Z,77.19
2022-12-12T09:33:19.043Z,76.53
2022-12-12T09:35:45.869Z,76.38
2022-12-12T09:38:14.648Z,76.04
2022-12-12T09:41:00.533Z,74.52
2022-12-12T09:43:35.451Z,74.82
2022-12-12T09:46:03.186Z,75.54
2022-12-12T09:48:37.715Z,74.63
2022-12-12T09:51:04.522Z,73.87
2022-12-12T09:53:31.148Z,72.78
2022-12-12T09:56:03.850Z,71.33
2022-12-12T09:58:44.985Z,71.89
2022-12-12T10:01:50.042Z,71.10
2022-12-12T10:04:25.796Z,70.68
2022-12-12T10:06:52.211Z,70.89
2022-12-12T10:09:45.008Z,68.60
2022-12-12T10:12:13.847Z,69.32
2022-12-12T10:14:50.086Z,68.41
2022-12-12T10:17:21.484Z,68.92
2022-12-12T10:19:51.801Z,69.94
2022-12-12T10:22:38.311Z,69.33
2022-12-12T10:25:17.811Z,68.01
2022-12-12T10:27:44.318Z,68.60
2022-12-12T10:30:17.194Z,68.30
2022-12-12T10:32:52.810Z,67.77
2022-12-12T10:35:47.102Z,67.14
2022-12-12T10:38:26.102Z,68.13
2022-12-12T10:41:06.114Z,68.95
2022-12-12T10:44:07.967Z,68.49
2022-12-12T10:46:46.329Z,68.56
2022-12-12T10:49:18.416Z,69.79
2022-12-12T10:51:47.758Z,69.10
2022-12-12T10:54:28.098Z,68.26
2022-12-12T10:57:05.301Z,67.03
2022-12-12T10:59:48.011Z,68.25
2022-12-12T11:02:39.877Z,67.14
2022-12-12T11:05:30.139Z,67.69
2022-12-12T11:08:03.804Z,68.51
2022-12-12T11:10:37.680Z,69.65
2022-12-12T11:13:10.346Z,69.91
2022-12-12T11:16:01.831Z,69.64
2022-12-12T11:18:29.569Z,69.26
2022-12-12T11:21:03.791Z,68.60
2022-12-12T11:23:30.866Z,69.19
2022-12-12T11:26:22.681Z,68.42
2022-12-12T11:28:59.346Z,69.43
2022-12-12T11:31:30.752Z,69.25
2022-12-12T11:34:00.091Z,67.66
2022-12-12T11:36:35.907Z,66.75
2022-12-12T11:39:16.983Z,66.20
2022-12-12T11:42:00.114Z,63.83
2022-12-12T11:44:31.864Z,65.73
2022-12-12T11:47:19.592Z,65.24
2022-12-12T11:50:10.992Z,65.82
2022-12-12T11:52:37.876Z,66.45
2022-12-12T11:55:07.056Z,66.05
2022-12-12T11:57:52.374Z,65.96
2022-12-12T12:00:23.584Z,66.85
2022-12-12T12:03:12.409Z,66.15
2022-12-12T12:06:01.026Z,67.12
2022-12-12T12:08:50.419Z,67.11
2022-12-12T12:11:41.923Z,67.26
2022-12-12T12:14:26.573Z,68.73
2022-12-12T12:17:15.988Z,69.03
2022-12-12T12:20:13.729Z,69.41
2022-12-12T12:23:02.039Z,69.59
2022-12-12T12:25:40.801Z,69.07
2022-12-12T12:28:35.978Z,69.59
2022-12-12T12:31:19.237Z,70.10
2022-12-12T12:33:58.319Z,69.45
2022-12-12T12:36:31.140Z,69.28
2022-12-12T12:39:13.742Z,68.41
2022-12-12T12:41:55.406Z,69.42
2022-12-12T12:44:31.515Z,69.50
2022-12-12T12:47:12.540Z,69.32
2022-12-12T12:49:40.203Z,69.57
2022-12-12T12:52:10.795Z,68.84
2022-12-12T12:54:40.448Z,68.20
2022-12-12T12:57:30.455Z,67.63
2022-12-12T13:00:05.530Z,68.29
2022-12-12T13:02:50.269Z,68.58
2022-12-12T13:05:23.043Z,68.25
2022-12-12T13:08:05.906Z,68.68
2022-12-12T13:10:33.098Z,69.22
2022-12-12T13:13:31.329Z,68.33
2022-12-12T13:16:01.525Z,69.01
2022-12-12T13:18:41.851Z,68.82
2022-12-12T13:21:21.364Z,69.24
2022-12-12T13:24:12.415Z,69.02
2022-12-12T13:26:52.303Z,68.76
2022-12-12T13:29:47.036Z,68.73
2022-12-12T13:32:37.672Z,69.55
2022-12-12T13:35:11.726Z,69.89
2022-12-12T13:37:50.142Z,69.21
2022-12-12T13:40:30.351Z,69.59
2022-12-12T13:43:09.548Z,69.58
2022-12-12T13:45:42.909Z,69.48
2022-12-12T13:48:38.195Z,69.51
2022-12-12T13:51:28.758Z,69.92
2022-12-12T13:54:12.008Z,69.56
2022-12-12T13:56:44.822Z,69.79
2022-12-12T13:59:23.557Z,69.13
2022-12-12T14:02:01.017Z,70.46
2022-12-12T14:04:35.688Z,69.70
2022-12-12T14:07:18.061Z,70.38
2022-12-12T14:09:49.095Z,70.46
2022-12-12T14:12:29.216Z,70.52
2022-12-12T14:15:01.366Z,70.71
2022-12-12T14:17:30.704Z,70.49
2022-12-12T14:19:58.922Z,70.53
2022-12-12T14:22:38.179Z,70.09
2022-12-12T14:25:19.385Z,70.56
2022-12-12T14:27:51.825Z,70.45
2022-12-12T14:30:22.271Z,71.45
2022-12-12T14:32:59.637Z,70.32
2022-12-12T14:35:41.101Z,70.80
2022-12-12T14:38:27.871Z,71.22
2022-12-12T14:40:59.357Z,71.27
2022-12-12T14:43:28.159Z,71.39
2022-12-12T14:45:59.195Z,72.05
2022-12-12T14:48:33.845Z,71.07
2022-12-12T14:51:09.507Z,71.28
2022-12-12T14:53:38.272Z,71.68
2022-12-12T14:56:23.097Z,71.73
2022-12-12T14:59:26.194Z,71.75
2022-12-12T15:01:55.064Z,72.26
2022-12-12T15:04:25.674Z,72.56
2022-12-12T15:06:54.243Z,72.06
2022-12-12T15:09:35.089Z,71.82
2022-12-12T15:12:10.864Z,71.82
2022-12-12T15:14:39.444Z,72.65
2022-12-12T15:17:14.791Z,72.49
2022-12-12T15:19:43.802Z,72.38
2022-12-12T15:22:15.816Z,72.35
2022-12-12T15:24:42.501Z,72.48
2022-12-12T15:27:18.774Z,72.28
2022-12-12T15:29:45.515Z,72.65
2022-12-12T15:32:23.021Z,72.64
2022-12-12T15:35:14.168Z,72.33
2022-12-12T15:37:40.726Z,72.33
2022-12-12T15:40:09.329Z,72.48
2022-12-12T15:42:37.162Z,72.46
2022-12-12T15:45:05.268Z,72.36
2022-12-12T15:47:31.944Z,73.17
2022-12-12T15:50:13.217Z,72.45
2022-12-12T15:52:40.079Z,72.53
2022-12-12T15:55:07.473Z,72.41
2022-12-12T15:57:47.477Z,72.55
2022-12-12T16:00:32.120Z,72.45
2022-12-12T16:03:18.032Z,72.92
2022-12-12T16:05:44.637Z,73.05
2022-12-12T16:08:31.717Z,72.91
2022-12-12T16:11:01.108Z,73.12
2022-12-12T16:13:39.709Z,72.89
2022-12-12T16:16:38.828Z,72.37
2022-12-12T16:19:16.219Z,72.88
2022-12-12T16:21:42.954Z,73.29
2022-12-12T16:24:12.925Z,73.33
2022-12-12T16:26:39.424Z,73.44
2022-12-12T16:29:05.943Z,72.96
2022-12-12T16:31:32.478Z,72.93
2022-12-12T16:34:02.963Z,73.08
2022-12-12T16:36:29.706Z,73.09
2022-12-12T16:38:56.370Z,73.16
2022-12-12T16:41:23.025Z,72.98
2022-12-12T16:43:49.678Z,72.79
2022-12-12T16:46:21.815Z,72.28
2022-12-12T16:48:48.735Z,72.92
2022-12-12T16:51:17.801Z,72.86
2022-12-12T16:53:44.584Z,72.88
2022-12-12T16:56:12.105Z,73.03
2022-12-12T16:58:39.042Z,72.57
2022-12-12T17:01:05.990Z,72.77
2022-12-12T17:03:32.919Z,73.02
2022-12-12T17:05:59.944Z,72.12
2022-12-12T17:08:27.051Z,72.29
2022-12-12T17:11:09.587Z,72.52
2022-12-12T17:13:38.268Z,72.51
2022-12-12T17:16:04.965Z,72.51
2022-12-12T17:18:31.478Z,72.49
2022-12-12T17:20:58.098Z,72.24
2022-12-12T17:23:27.398Z,71.71
2022-12-12T17:26:00.764Z,72.28
2022-12-12T17:28:29.420Z,71.84
2022-12-12T17:30:55.938Z,72.01
2022-12-12T17:33:22.430Z,71.75
2022-12-12T17:36:00.974Z,71.76
2022-12-12T17:38:27.645Z,71.63
2022-12-12T17:40:56.654Z,71.54
2022-12-12T17:43:24.571Z,71.42
2022-12-12T17:46:01.882Z,70.31
2022-12-12T17:48:30.565Z,71.05
2022-12-12T17:51:01.964Z,71.51
2022-12-12T17:53:36.502Z,71.56
2022-12-12T17:56:16.442Z,70.31
2022-12-12T17:58:44.767Z,71.22
2022-12-12T18:01:24.111Z,71.29
2022-12-12T18:03:51.033Z,71.72
2022-12-12T18:06:18.841Z,71.69
2022-12-12T18:08:46.843Z,72.21
2022-12-12T18:11:15.968Z,71.82
2022-12-12T18:13:42.889Z,71.74
2022-12-12T18:16:12.784Z,71.76
2022-12-12T18:18:39.795Z,72.75
2022-12-12T18:21:12.875Z,72.06
2022-12-12T18:23:42.658Z,71.96
2022-12-12T18:26:12.517Z,72.05
2022-12-12T18:28:41.814Z,71.99
2022-12-12T18:31:09.277Z,72.23
2022-12-12T18:33:36.336Z,72.41
2022-12-12T18:36:08.067Z,72.24
2022-12-12T18:38:35.313Z,72.34
2022-12-12T18:41:02.596Z,71.93
2022-12-12T18:43:30.087Z,72.15
2022-12-12T18:46:02.492Z,71.81
2022-12-12T18:48:30.827Z,71.87
2022-12-12T18:51:05.114Z,72.08
2022-12-12T18:53:31.816Z,72.03
2022-12-12T18:55:58.488Z,72.38
2022-12-12T18:58:25.090Z,72.39
2022-12-12T19:00:51.787Z,71.72
2022-12-12T19:03:19.155Z,71.94
2022-12-12T19:05:45.819Z,72.22
2022-12-12T19:08:12.413Z,71.66
2022-12-12T19:10:38.975Z,72.08
2022-12-12T19:13:05.519Z,71.97
2022-12-12T19:15:32.026Z,72.26
2022-12-12T19:17:58.529Z,71.79
2022-12-12T19:20:25.245Z,72.26
2022-12-12T19:22:51.718Z,72.50
2022-12-12T19:25:18.924Z,71.69
2022-12-12T19:27:45.537Z,71.95
2022-12-12T19:30:13.449Z,72.26
2022-12-12T19:32:41.353Z,72.32
2022-12-12T19:35:08.310Z,72.00
2022-12-12T19:37:36.098Z,72.27
2022-12-12T19:40:02.632Z,72.12
2022-12-12T19:42:29.116Z,72.26
2022-12-12T19:44:55.687Z,72.31
2022-12-12T19:47:22.202Z,72.36
2022-12-12T19:49:49.242Z,72.38
2022-12-12T19:52:16.451Z,72.46
2022-12-12T19:54:42.967Z,72.33
2022-12-12T19:57:09.704Z,72.55
2022-12-12T19:59:36.313Z,72.79
2022-12-12T20:02:05.449Z,72.68
2022-12-12T20:04:32.585Z,72.40
2022-12-12T20:06:59.136Z,72.63
2022-12-12T20:09:27.761Z,73.42
2022-12-12T20:11:55.564Z,73.74
2022-12-12T20:14:24.985Z,73.44
2022-12-12T20:16:52.784Z,73.25
2022-12-12T20:19:19.800Z,73.81
2022-12-12T20:22:04.047Z,73.80
2022-12-12T20:24:32.476Z,73.72
2022-12-12T20:26:59.576Z,73.84
2022-12-12T20:29:26.534Z,73.79
2022-12-12T20:31:53.618Z,73.76
2022-12-12T20:34:24.852Z,74.18
2022-12-12T20:36:52.516Z,73.82
2022-12-12T20:39:20.909Z,74.01
2022-12-12T20:41:48.782Z,73.77
2022-12-12T20:44:15.633Z,73.47
2022-12-12T20:46:44.483Z,73.56
2022-12-12T20:49:14.910Z,73.90
2022-12-12T20:51:58.340Z,73.58
2022-12-12T20:54:27.286Z,73.74
2022-12-12T20:56:54.472Z,73.80
2022-12-12T20:59:21.314Z,74.17
2022-12-12T21:01:48.142Z,73.93
2022-12-12T21:04:15.320Z,73.81
2022-12-12T21:06:47.856Z,73.49
2022-12-12T21:09:22.741Z,73.54
2022-12-12T21:11:50.450Z,73.14
2022-12-12T21:14:17.225Z,73.54
2022-12-12T21:16:43.766Z,73.55
2022-12-12T21:19:13.040Z,73.91
2022-12-12T21:21:40.577Z,73.07
2022-12-12T21:24:07.394Z,73.57
2022-12-12T21:26:34.209Z,73.36
2022-12-12T21:29:01.925Z,73.47
2022-12-12T21:31:30.949Z,72.63
2022-12-12T21:33:57.902Z,72.84
2022-12-12T21:36:25.692Z,72.55
2022-12-12T21:38:52.853Z,72.63
2022-12-12T21:41:20.690Z,72.72
2022-12-12T21:43:47.652Z,72.75
2022-12-12T21:46:16.437Z,71.92
2022-12-12T21:48:43.336Z,72.18
2022-12-12T21:51:13.966Z,71.85
2022-12-12T21:53:41.659Z,71.10
2022-12-12T21:56:15.918Z,71.63
2022-12-12T21:58:43.660Z,71.45
2022-12-12T22:01:20.693Z,70.93
2022-12-12T22:03:48.404Z,71.26
2022-12-12T22:06:17.290Z,70.92
2022-12-12T22:08:44.177Z,71.40
2022-12-12T22:11:11.164Z,71.25
2022-12-12T22:13:40.336Z,71.46
2022-12-12T22:16:17.864Z,71.10
2022-12-12T22:18:46.714Z,70.95
2022-12-12T22:21:15.844Z,71.16
2022-12-12T22:23:42.827Z,71.38
2022-12-12T22:26:16.013Z,71.12
2022-12-12T22:28:42.826Z,70.87
2022-12-12T22:31:09.810Z,71.05
2022-12-12T22:33:36.366Z,70.95
2022-12-12T22:36:07.249Z,71.05
2022-12-12T22:38:38.046Z,71.18
2022-12-12T22:41:06.431Z,71.57
2022-12-12T22:43:35.951Z,71.24
2022-12-12T22:46:06.658Z,70.61
2022-12-12T22:48:34.190Z,70.91
2022-12-12T22:51:10.718Z,70.49
2022-12-12T22:53:42.501Z,70.01
2022-12-12T22:56:10.965Z,70.07
2022-12-12T22:58:37.498Z,70.08
2022-12-12T23:01:17.942Z,69.22
2022-12-12T23:03:44.943Z,69.13
2022-12-12T23:06:17.332Z,69.21
2022-12-12T23:08:48.272Z,69.42
2022-12-12T23:11:15.051Z,68.53
2022-12-12T23:13:44.291Z,69.81
2022-12-12T23:16:16.337Z,69.21
2022-12-12T23:18:43.958Z,69.48
2022-12-12T23:21:16.666Z,69.04
2022-12-12T23:23:44.088Z,69.72
2022-12-12T23:26:16.610Z,69.91
2022-12-12T23:28:43.407Z,69.24
2022-12-12T23:31:11.546Z,69.43
2022-12-12T23:33:38.788Z,69.76
2022-12-12T23:36:08.020Z,69.83
2022-12-12T23:38:34.566Z,70.17
2022-12-12T23:41:08.969Z,69.84
2022-12-12T23:43:35.783Z,69.70
2022-12-12T23:46:06.232Z,70.15
2022-12-12T23:48:33.616Z,70.16
2022-12-12T23:51:00.394Z,69.88
2022-12-12T23:53:27.471Z,70.46
2022-12-12T23:55:53.966Z,69.95
2022-12-12T23:58:20.456Z,69.71
